First Ferry Viii — VRS4306 — position and weather

sailwx.info

Track history (hours):
 
Tides and Currents Weather Stations Pressure Air Temp Water Temp Dewpoint Dewpoint Depression Visibility Wind Speed Wind Dir Waves Ship Positions

First Ferry Viii

Last reported at 2016-May-01 07:33 UTC. Time now 2016-May-01 07:58 UTC.
Position N 22°17' E 114°10'.

Length 36 m; draft 1.8 m.

Type: High speed craft. MMSI: 477995030.

Date/timePositionNaut miles runAvg speedWind from/ knotsBaromVisibWave heightAir tempDewpointWater temp
2016-May-01 07:33N 22°17' E 114°10'1 0.3
2016-May-01 05:33N 22°18' E 114°09'3 2.2
2016-May-01 04:10N 22°17' E 114°06'3 5.3
2016-May-01 03:33N 22°17' E 114°09'0 0.1
2016-May-01 01:33N 22°17' E 114°10'3 2.5
2016-May-01 00:14N 22°17' E 114°06'3 4.7
2016-Apr-30 23:33N 22°18' E 114°09'1 1.1
2016-Apr-30 22:33N 22°17' E 114°10'0 0.0
2016-Apr-30 15:33N 22°17' E 114°10'3 2.3
2016-Apr-30 14:12N 22°17' E 114°06'3 4.4
2016-Apr-30 13:34N 22°18' E 114°09'3 2.2
2016-Apr-30 12:13N 22°17' E 114°06'3 4.1
2016-Apr-30 11:33N 22°18' E 114°09'3 2.5
2016-Apr-30 10:32N 22°17' E 114°06'3 1.5
2016-Apr-30 08:33N 22°17' E 114°10'0 0.0
2016-Apr-30 06:33N 22°17' E 114°10'0 0.0
2016-Apr-30 04:33N 22°17' E 114°10'3 2.6
2016-Apr-30 03:33N 22°19' E 114°12'0 0.0
2016-Apr-30 02:33N 22°19' E 114°12'3 1.3
2016-Apr-30 00:33N 22°17' E 114°10'3 2.8
2016-Apr-29 23:23N 22°17' E 114°06'3 0.4
2016-Apr-29 15:34N 22°17' E 114°10'5 3.6
2016-Apr-29 14:15N 22°16' E 114°05'5 6.6
2016-Apr-29 13:34N 22°17' E 114°10'3 2.5
2016-Apr-29 12:15N 22°18' E 114°06'1 0.8
2016-Apr-29 10:33N 22°18' E 114°08'2 1.0
2016-Apr-29 08:33N 22°17' E 114°10'0 0.0
2016-Apr-29 06:33N 22°17' E 114°10'3 2.6
2016-Apr-29 05:33N 22°19' E 114°12'0 0.2
2016-Apr-29 04:33N 22°19' E 114°12'0 0.0
2016-Apr-29 03:33N 22°19' E 114°12'3 2.7
2016-Apr-29 02:33N 22°20' E 114°09'2 1.1
2016-Apr-29 00:32N 22°18' E 114°09'3 2.7
2016-Apr-28 23:24N 22°17' E 114°06'4 0.5
2016-Apr-28 15:33N 22°17' E 114°10'4 2.8
2016-Apr-28 14:14N 22°17' E 114°06'4 5.4
2016-Apr-28 13:34N 22°17' E 114°10'4 2.9
2016-Apr-28 12:15N 22°17' E 114°06'4 5.2
2016-Apr-28 11:34N 22°17' E 114°09'2 2.4
2016-Apr-28 10:33N 22°17' E 114°07'3 1.4
2016-Apr-28 08:34N 22°17' E 114°10'0 0.0
2016-Apr-28 06:34N 22°17' E 114°10'3 2.7
2016-Apr-28 05:33N 22°19' E 114°12'0 0.0
2016-Apr-28 04:33N 22°19' E 114°12'0 0.0
2016-Apr-28 03:33N 22°19' E 114°12'0 0.0
2016-Apr-28 02:33N 22°19' E 114°12'3 1.3
2016-Apr-28 00:34N 22°17' E 114°10'4 3.4
2016-Apr-27 23:24N 22°17' E 114°05'4 0.5
2016-Apr-27 15:33N 22°17' E 114°10'3 2.3
2016-Apr-27 14:14N 22°17' E 114°06'3 4.7
2016-Apr-27 13:34N 22°17' E 114°10'4 3.0
2016-Apr-27 12:15N 22°17' E 114°05'4 5.3
2016-Apr-27 11:34N 22°17' E 114°09'2 1.9
2016-Apr-27 10:31N 22°18' E 114°07'2 1.1
2016-Apr-27 08:33N 22°17' E 114°10'0 0.0
2016-Apr-27 06:33N 22°17' E 114°10'3 2.6
2016-Apr-27 05:33N 22°19' E 114°12'0 0.0
2016-Apr-27 04:33N 22°19' E 114°12'0 0.0
2016-Apr-27 03:33N 22°19' E 114°12'3 2.9
2016-Apr-27 02:33N 22°20' E 114°09'2 1.1
2016-Apr-27 00:34N 22°17' E 114°09'5 4.1
2016-Apr-26 23:27N 22°17' E 114°04'5 0.6
2016-Apr-26 15:33N 22°17' E 114°10'4 2.8
2016-Apr-26 14:16N 22°17' E 114°06'4 5.1
2016-Apr-26 13:34N 22°17' E 114°10'5 4.1
2016-Apr-26 12:19N 22°16' E 114°04'4 5.8
2016-Apr-26 11:33N 22°18' E 114°09'1 1.2
2016-Apr-26 10:33N 22°18' E 114°08'2 1.0
2016-Apr-26 08:33N 22°17' E 114°10'0 0.0
2016-Apr-26 06:33N 22°17' E 114°10'3 2.7
2016-Apr-26 05:34N 22°19' E 114°12'0 0.0
2016-Apr-26 04:33N 22°19' E 114°12'0 0.0
2016-Apr-26 03:34N 22°19' E 114°12'0 0.0
2016-Apr-26 02:33N 22°19' E 114°12'3 1.3
2016-Apr-26 00:34N 22°17' E 114°10'5 4.2
2016-Apr-25 23:27N 22°17' E 114°05'5 0.6
2016-Apr-25 15:33N 22°17' E 114°10'4 3.1
2016-Apr-25 14:16N 22°17' E 114°05'4 5.5
2016-Apr-25 13:34N 22°17' E 114°10'3 2.4
2016-Apr-25 12:14N 22°17' E 114°06'2 3.3
2016-Apr-25 11:33N 22°18' E 114°09'1 1.1
2016-Apr-25 10:33N 22°18' E 114°07'2 1.5
2016-Apr-25 09:03N 22°16' E 114°05'4 8.4
2016-Apr-25 08:33N 22°17' E 114°10'0 0.0
2016-Apr-25 06:34N 22°17' E 114°10'3 2.3
2016-Apr-25 05:28N 22°20' E 114°09'0 0.0
2016-Apr-25 04:33N 22°20' E 114°09'0 0.0
2016-Apr-25 03:33N 22°20' E 114°09'0 0.0
2016-Apr-25 02:32N 22°20' E 114°09'2 1.2
2016-Apr-25 00:33N 22°17' E 114°09'5 4.2
2016-Apr-24 23:26N 22°17' E 114°04'1 0.1
2016-Apr-24 16:11N 22°16' E 114°05'5 7.3
2016-Apr-24 15:33N 22°17' E 114°10'4 2.7
2016-Apr-24 14:14N 22°17' E 114°06'4 5.3
2016-Apr-24 13:33N 22°17' E 114°10'5 4.0
2016-Apr-24 12:18N 22°16' E 114°05'5 6.5
2016-Apr-24 11:33N 22°17' E 114°10'4 2.8
2016-Apr-24 10:15N 22°17' E 114°06'4 5.3
2016-Apr-24 09:33N 22°17' E 114°10'4 2.7
2016-Apr-24 08:14N 22°17' E 114°06'4 5.3
2016-Apr-24 07:33N 22°17' E 114°10'3 2.1
2016-Apr-24 06:14N 22°17' E 114°07'3 4.2
2016-Apr-24 05:33N 22°17' E 114°10'4 2.6
2016-Apr-24 04:10N 22°17' E 114°06'4 6.1
2016-Apr-24 03:33N 22°17' E 114°10'4 3.0
2016-Apr-24 02:16N 22°17' E 114°05'4 5.2
2016-Apr-24 01:28N 22°20' E 114°09'0 0.0
2016-Apr-24 00:33N 22°20' E 114°09'3 2.5
2016-Apr-23 23:33N 22°17' E 114°10'0 0.0
2016-Apr-23 16:33N 22°17' E 114°10'5 4.5
2016-Apr-23 15:21N 22°16' E 114°04'5 6.9
2016-Apr-23 14:33N 22°17' E 114°10'3 2.5
2016-Apr-23 13:15N 22°17' E 114°06'3 4.7
2016-Apr-23 12:33N 22°17' E 114°10'5 3.6
2016-Apr-23 11:17N 22°16' E 114°05'5 2.7
2016-Apr-23 09:33N 22°17' E 114°10'0 0.0
2016-Apr-23 07:33N 22°17' E 114°10'0 0.0
2016-Apr-23 05:33N 22°17' E 114°10'0 0.0
2016-Apr-23 03:33N 22°17' E 114°10'3 2.6
2016-Apr-23 02:34N 22°19' E 114°12'3 2.6
2016-Apr-23 01:33N 22°17' E 114°09'3 2.5
2016-Apr-23 00:15N 22°17' E 114°06'3 4.8
2016-Apr-22 23:33N 22°17' E 114°10'0 0.0
2016-Apr-22 16:34N 22°17' E 114°10'4 3.2
2016-Apr-22 15:16N 22°16' E 114°05'4 5.9
2016-Apr-22 14:33N 22°17' E 114°10'3 2.3
2016-Apr-22 13:14N 22°17' E 114°06'3 4.5
2016-Apr-22 12:33N 22°17' E 114°10'4 3.0
2016-Apr-22 11:16N 22°17' E 114°05'4 2.3
2016-Apr-22 09:33N 22°17' E 114°10'5 3.2
2016-Apr-22 08:05N 22°16' E 114°05'5 8.9
2016-Apr-22 07:33N 22°17' E 114°10'0 0.0
2016-Apr-22 05:33N 22°17' E 114°10'1 0.9
2016-Apr-22 04:33N 22°17' E 114°10'0 0.0
2016-Apr-22 03:33N 22°17' E 114°10'0 0.4
2016-Apr-22 02:33N 22°17' E 114°10'1 0.7
2016-Apr-22 01:34N 22°17' E 114°09'5 3.7
2016-Apr-22 00:18N 22°16' E 114°05'5 6.2
2016-Apr-21 23:34N 22°17' E 114°09'0 0.0
2016-Apr-21 16:33N 22°17' E 114°09'4 3.4
2016-Apr-21 15:17N 22°16' E 114°05'4 6.1
2016-Apr-21 14:34N 22°17' E 114°10'4 3.3
2016-Apr-21 13:17N 22°16' E 114°05'4 5.9
2016-Apr-21 12:33N 22°17' E 114°10'5 3.8
2016-Apr-21 11:18N 22°16' E 114°05'5 2.7
2016-Apr-21 09:33N 22°17' E 114°10'4 3.0
2016-Apr-21 08:03N 22°16' E 114°05'4 9.0
2016-Apr-21 07:33N 22°17' E 114°10'  
Track history (hours):
 
Tides and Currents Weather Stations Pressure Air Temp Water Temp Dewpoint Dewpoint Depression Visibility Wind Speed Wind Dir Waves Ship Positions

First Ferry Viii

Last reported at 2016-May-01 07:33 UTC. Time now 2016-May-01 07:58 UTC.
Position N 22°17' E 114°10'.

Length 36 m; draft 1.8 m.

Type: High speed craft. MMSI: 477995030.

Date/timePositionNaut miles runAvg speedWind from/ knotsBaromVisibWave heightAir tempDewpointWater temp
2016-May-01 07:33N 22°17' E 114°10'1 0.3
2016-May-01 05:33N 22°18' E 114°09'3 2.2
2016-May-01 04:10N 22°17' E 114°06'3 5.3
2016-May-01 03:33N 22°17' E 114°09'0 0.1
2016-May-01 01:33N 22°17' E 114°10'3 2.5
2016-May-01 00:14N 22°17' E 114°06'3 4.7
2016-Apr-30 23:33N 22°18' E 114°09'1 1.1
2016-Apr-30 22:33N 22°17' E 114°10'0 0.0
2016-Apr-30 15:33N 22°17' E 114°10'3 2.3
2016-Apr-30 14:12N 22°17' E 114°06'3 4.4
2016-Apr-30 13:34N 22°18' E 114°09'3 2.2
2016-Apr-30 12:13N 22°17' E 114°06'3 4.1
2016-Apr-30 11:33N 22°18' E 114°09'3 2.5
2016-Apr-30 10:32N 22°17' E 114°06'3 1.5
2016-Apr-30 08:33N 22°17' E 114°10'0 0.0
2016-Apr-30 06:33N 22°17' E 114°10'0 0.0
2016-Apr-30 04:33N 22°17' E 114°10'3 2.6
2016-Apr-30 03:33N 22°19' E 114°12'0 0.0
2016-Apr-30 02:33N 22°19' E 114°12'3 1.3
2016-Apr-30 00:33N 22°17' E 114°10'3 2.8
2016-Apr-29 23:23N 22°17' E 114°06'3 0.4
2016-Apr-29 15:34N 22°17' E 114°10'5 3.6
2016-Apr-29 14:15N 22°16' E 114°05'5 6.6
2016-Apr-29 13:34N 22°17' E 114°10'3 2.5
2016-Apr-29 12:15N 22°18' E 114°06'1 0.8
2016-Apr-29 10:33N 22°18' E 114°08'2 1.0
2016-Apr-29 08:33N 22°17' E 114°10'0 0.0
2016-Apr-29 06:33N 22°17' E 114°10'3 2.6
2016-Apr-29 05:33N 22°19' E 114°12'0 0.2
2016-Apr-29 04:33N 22°19' E 114°12'0 0.0
2016-Apr-29 03:33N 22°19' E 114°12'3 2.7
2016-Apr-29 02:33N 22°20' E 114°09'2 1.1
2016-Apr-29 00:32N 22°18' E 114°09'3 2.7
2016-Apr-28 23:24N 22°17' E 114°06'4 0.5
2016-Apr-28 15:33N 22°17' E 114°10'4 2.8
2016-Apr-28 14:14N 22°17' E 114°06'4 5.4
2016-Apr-28 13:34N 22°17' E 114°10'4 2.9
2016-Apr-28 12:15N 22°17' E 114°06'4 5.2
2016-Apr-28 11:34N 22°17' E 114°09'2 2.4
2016-Apr-28 10:33N 22°17' E 114°07'3 1.4
2016-Apr-28 08:34N 22°17' E 114°10'0 0.0
2016-Apr-28 06:34N 22°17' E 114°10'3 2.7
2016-Apr-28 05:33N 22°19' E 114°12'0 0.0
2016-Apr-28 04:33N 22°19' E 114°12'0 0.0
2016-Apr-28 03:33N 22°19' E 114°12'0 0.0
2016-Apr-28 02:33N 22°19' E 114°12'3 1.3
2016-Apr-28 00:34N 22°17' E 114°10'4 3.4
2016-Apr-27 23:24N 22°17' E 114°05'4 0.5
2016-Apr-27 15:33N 22°17' E 114°10'3 2.3
2016-Apr-27 14:14N 22°17' E 114°06'3 4.7
2016-Apr-27 13:34N 22°17' E 114°10'4 3.0
2016-Apr-27 12:15N 22°17' E 114°05'4 5.3
2016-Apr-27 11:34N 22°17' E 114°09'2 1.9
2016-Apr-27 10:31N 22°18' E 114°07'2 1.1
2016-Apr-27 08:33N 22°17' E 114°10'0 0.0
2016-Apr-27 06:33N 22°17' E 114°10'3 2.6
2016-Apr-27 05:33N 22°19' E 114°12'0 0.0
2016-Apr-27 04:33N 22°19' E 114°12'0 0.0
2016-Apr-27 03:33N 22°19' E 114°12'3 2.9
2016-Apr-27 02:33N 22°20' E 114°09'2 1.1
2016-Apr-27 00:34N 22°17' E 114°09'5 4.1
2016-Apr-26 23:27N 22°17' E 114°04'5 0.6
2016-Apr-26 15:33N 22°17' E 114°10'4 2.8
2016-Apr-26 14:16N 22°17' E 114°06'4 5.1
2016-Apr-26 13:34N 22°17' E 114°10'5 4.1
2016-Apr-26 12:19N 22°16' E 114°04'4 5.8
2016-Apr-26 11:33N 22°18' E 114°09'1 1.2
2016-Apr-26 10:33N 22°18' E 114°08'2 1.0
2016-Apr-26 08:33N 22°17' E 114°10'0 0.0
2016-Apr-26 06:33N 22°17' E 114°10'3 2.7
2016-Apr-26 05:34N 22°19' E 114°12'0 0.0
2016-Apr-26 04:33N 22°19' E 114°12'0 0.0
2016-Apr-26 03:34N 22°19' E 114°12'0 0.0
2016-Apr-26 02:33N 22°19' E 114°12'3 1.3
2016-Apr-26 00:34N 22°17' E 114°10'5 4.2
2016-Apr-25 23:27N 22°17' E 114°05'5 0.6
2016-Apr-25 15:33N 22°17' E 114°10'4 3.1
2016-Apr-25 14:16N 22°17' E 114°05'4 5.5
2016-Apr-25 13:34N 22°17' E 114°10'3 2.4
2016-Apr-25 12:14N 22°17' E 114°06'2 3.3
2016-Apr-25 11:33N 22°18' E 114°09'1 1.1
2016-Apr-25 10:33N 22°18' E 114°07'2 1.5
2016-Apr-25 09:03N 22°16' E 114°05'4 8.4
2016-Apr-25 08:33N 22°17' E 114°10'0 0.0
2016-Apr-25 06:34N 22°17' E 114°10'3 2.3
2016-Apr-25 05:28N 22°20' E 114°09'0 0.0
2016-Apr-25 04:33N 22°20' E 114°09'0 0.0
2016-Apr-25 03:33N 22°20' E 114°09'0 0.0
2016-Apr-25 02:32N 22°20' E 114°09'2 1.2
2016-Apr-25 00:33N 22°17' E 114°09'5 4.2
2016-Apr-24 23:26N 22°17' E 114°04'1 0.1
2016-Apr-24 16:11N 22°16' E 114°05'5 7.3
2016-Apr-24 15:33N 22°17' E 114°10'4 2.7
2016-Apr-24 14:14N 22°17' E 114°06'4 5.3
2016-Apr-24 13:33N 22°17' E 114°10'5 4.0
2016-Apr-24 12:18N 22°16' E 114°05'5 6.5
2016-Apr-24 11:33N 22°17' E 114°10'4 2.8
2016-Apr-24 10:15N 22°17' E 114°06'4 5.3
2016-Apr-24 09:33N 22°17' E 114°10'4 2.7
2016-Apr-24 08:14N 22°17' E 114°06'4 5.3
2016-Apr-24 07:33N 22°17' E 114°10'3 2.1
2016-Apr-24 06:14N 22°17' E 114°07'3 4.2
2016-Apr-24 05:33N 22°17' E 114°10'4 2.6
2016-Apr-24 04:10N 22°17' E 114°06'4 6.1
2016-Apr-24 03:33N 22°17' E 114°10'4 3.0
2016-Apr-24 02:16N 22°17' E 114°05'4 5.2
2016-Apr-24 01:28N 22°20' E 114°09'0 0.0
2016-Apr-24 00:33N 22°20' E 114°09'3 2.5
2016-Apr-23 23:33N 22°17' E 114°10'0 0.0
2016-Apr-23 16:33N 22°17' E 114°10'5 4.5
2016-Apr-23 15:21N 22°16' E 114°04'5 6.9
2016-Apr-23 14:33N 22°17' E 114°10'3 2.5
2016-Apr-23 13:15N 22°17' E 114°06'3 4.7
2016-Apr-23 12:33N 22°17' E 114°10'5 3.6
2016-Apr-23 11:17N 22°16' E 114°05'5 2.7
2016-Apr-23 09:33N 22°17' E 114°10'0 0.0
2016-Apr-23 07:33N 22°17' E 114°10'0 0.0
2016-Apr-23 05:33N 22°17' E 114°10'0 0.0
2016-Apr-23 03:33N 22°17' E 114°10'3 2.6
2016-Apr-23 02:34N 22°19' E 114°12'3 2.6
2016-Apr-23 01:33N 22°17' E 114°09'3 2.5
2016-Apr-23 00:15N 22°17' E 114°06'3 4.8
2016-Apr-22 23:33N 22°17' E 114°10'0 0.0
2016-Apr-22 16:34N 22°17' E 114°10'4 3.2
2016-Apr-22 15:16N 22°16' E 114°05'4 5.9
2016-Apr-22 14:33N 22°17' E 114°10'3 2.3
2016-Apr-22 13:14N 22°17' E 114°06'3 4.5
2016-Apr-22 12:33N 22°17' E 114°10'4 3.0
2016-Apr-22 11:16N 22°17' E 114°05'4 2.3
2016-Apr-22 09:33N 22°17' E 114°10'5 3.2
2016-Apr-22 08:05N 22°16' E 114°05'5 8.9
2016-Apr-22 07:33N 22°17' E 114°10'0 0.0
2016-Apr-22 05:33N 22°17' E 114°10'1 0.9
2016-Apr-22 04:33N 22°17' E 114°10'0 0.0
2016-Apr-22 03:33N 22°17' E 114°10'0 0.4
2016-Apr-22 02:33N 22°17' E 114°10'1 0.7
2016-Apr-22 01:34N 22°17' E 114°09'5 3.7
2016-Apr-22 00:18N 22°16' E 114°05'5 6.2
2016-Apr-21 23:34N 22°17' E 114°09'0 0.0
2016-Apr-21 16:33N 22°17' E 114°09'4 3.4
2016-Apr-21 15:17N 22°16' E 114°05'4 6.1
2016-Apr-21 14:34N 22°17' E 114°10'4 3.3
2016-Apr-21 13:17N 22°16' E 114°05'4 5.9
2016-Apr-21 12:33N 22°17' E 114°10'5 3.8
2016-Apr-21 11:18N 22°16' E 114°05'5 2.7
2016-Apr-21 09:33N 22°17' E 114°10'4 3.0
2016-Apr-21 08:03N 22°16' E 114°05'4 9.0
2016-Apr-21 07:33N 22°17' E 114°10'  

Dump ship's entire track history